createdAt,value
2018-09-29T00:01:56.499Z,84.34
2018-09-29T00:04:24.721Z,83.81
2018-09-29T00:06:52.900Z,83.10
2018-09-29T00:09:21.089Z,82.81
2018-09-29T00:11:49.317Z,83.13
2018-09-29T00:14:17.505Z,82.33
2018-09-29T00:16:45.706Z,83.23
2018-09-29T00:19:13.904Z,84.08
2018-09-29T00:21:42.105Z,83.33
2018-09-29T00:24:10.295Z,83.00
2018-09-29T00:26:38.474Z,83.93
2018-09-29T00:29:06.651Z,83.63
2018-09-29T00:31:34.848Z,83.30
2018-09-29T00:34:03.036Z,82.56
2018-09-29T00:36:31.212Z,82.55
2018-09-29T00:38:59.406Z,83.67
2018-09-29T00:41:27.583Z,83.05
2018-09-29T00:43:55.807Z,84.20
2018-09-29T00:46:23.976Z,82.37
2018-09-29T00:48:52.148Z,81.74
2018-09-29T00:51:20.364Z,82.55
2018-09-29T00:53:48.605Z,82.80
2018-09-29T00:56:16.826Z,82.40
2018-09-29T00:58:44.998Z,83.73
2018-09-29T01:01:13.290Z,83.20
2018-09-29T01:03:41.477Z,83.29
2018-09-29T01:06:09.660Z,82.44
2018-09-29T01:08:37.849Z,81.14
2018-09-29T01:11:06.179Z,81.74
2018-09-29T01:13:34.354Z,82.08
2018-09-29T01:16:02.552Z,82.72
2018-09-29T01:18:30.773Z,82.54
2018-09-29T01:20:58.992Z,82.21
2018-09-29T01:23:27.198Z,82.83
2018-09-29T01:25:55.397Z,82.28
2018-09-29T01:28:23.581Z,81.81
2018-09-29T01:30:51.771Z,82.22
2018-09-29T01:33:19.939Z,81.38
2018-09-29T01:35:48.113Z,81.96
2018-09-29T01:38:16.308Z,81.66
2018-09-29T01:40:44.516Z,81.99
2018-09-29T01:43:12.685Z,81.36
2018-09-29T01:45:40.875Z,81.86
2018-09-29T01:48:09.086Z,81.28
2018-09-29T01:50:37.269Z,81.60
2018-09-29T01:53:05.454Z,81.88
2018-09-29T01:55:33.668Z,81.31
2018-09-29T01:58:01.840Z,80.36
2018-09-29T02:00:30.029Z,82.27
2018-09-29T02:03:02.372Z,80.35
2018-09-29T02:05:30.552Z,80.86
2018-09-29T02:07:58.741Z,80.84
2018-09-29T02:10:26.940Z,81.66
2018-09-29T02:12:55.129Z,80.49
2018-09-29T02:15:23.320Z,81.39
2018-09-29T02:17:51.516Z,81.44
2018-09-29T02:20:19.680Z,82.45
2018-09-29T02:22:47.893Z,81.48
2018-09-29T02:25:16.157Z,81.91
2018-09-29T02:27:44.359Z,81.57
2018-09-29T02:30:12.567Z,80.94
2018-09-29T02:32:40.749Z,82.93
2018-09-29T02:35:08.924Z,81.49
2018-09-29T02:37:37.171Z,81.82
2018-09-29T02:40:05.286Z,81.28
2018-09-29T02:42:33.520Z,81.02
2018-09-29T02:45:01.704Z,81.22
2018-09-29T02:47:29.909Z,81.17
2018-09-29T02:49:58.135Z,81.18
2018-09-29T02:52:26.552Z,81.11
2018-09-29T02:54:54.728Z,80.73
2018-09-29T02:57:22.907Z,80.57
2018-09-29T02:59:51.428Z,80.43
2018-09-29T03:02:19.607Z,80.62
2018-09-29T03:04:47.809Z,80.89
2018-09-29T03:07:16.285Z,80.81
2018-09-29T03:09:44.435Z,80.75
2018-09-29T03:12:12.607Z,81.20
2018-09-29T03:14:40.813Z,80.48
2018-09-29T03:17:09.016Z,80.32
2018-09-29T03:19:37.209Z,81.01
2018-09-29T03:22:05.400Z,80.87
2018-09-29T03:24:33.586Z,80.43
2018-09-29T03:27:01.836Z,80.77
2018-09-29T03:29:29.996Z,81.37
2018-09-29T03:31:58.330Z,81.42
2018-09-29T03:34:26.367Z,81.22
2018-09-29T03:36:54.557Z,81.46
2018-09-29T03:39:22.727Z,80.82
2018-09-29T03:41:50.956Z,80.93
2018-09-29T03:44:19.134Z,81.45
2018-09-29T03:46:47.330Z,81.87
2018-09-29T03:49:15.495Z,80.79
2018-09-29T03:51:43.690Z,81.74
2018-09-29T03:54:11.865Z,80.81
2018-09-29T03:56:40.052Z,82.17
2018-09-29T03:59:08.264Z,81.29
2018-09-29T04:01:36.455Z,81.26
2018-09-29T04:04:04.724Z,80.89
2018-09-29T04:06:32.909Z,81.17
2018-09-29T04:09:01.191Z,79.99
2018-09-29T04:11:29.370Z,81.04
2018-09-29T04:13:57.571Z,80.81
2018-09-29T04:16:25.740Z,81.46
2018-09-29T04:18:53.945Z,81.05
2018-09-29T04:21:22.156Z,80.23
2018-09-29T04:23:50.348Z,80.93
2018-09-29T04:26:18.553Z,80.86
2018-09-29T04:28:46.760Z,79.54
2018-09-29T04:31:14.933Z,81.17
2018-09-29T04:33:43.154Z,81.01
2018-09-29T04:36:11.349Z,80.18
2018-09-29T04:38:39.540Z,79.43
2018-09-29T04:41:07.759Z,80.75
2018-09-29T04:43:35.927Z,80.67
2018-09-29T04:46:04.136Z,80.28
2018-09-29T04:48:32.323Z,80.24
2018-09-29T04:51:00.553Z,80.39
2018-09-29T04:53:28.738Z,81.29
2018-09-29T04:55:56.927Z,80.20
2018-09-29T04:58:25.124Z,80.66
2018-09-29T05:00:53.325Z,80.10
2018-09-29T05:03:21.523Z,81.42
2018-09-29T05:05:49.721Z,80.38
2018-09-29T05:08:17.916Z,81.42
2018-09-29T05:10:46.100Z,81.17
2018-09-29T05:13:14.299Z,81.59
2018-09-29T05:15:42.469Z,80.37
2018-09-29T05:18:10.697Z,80.99
2018-09-29T05:20:38.876Z,81.10
2018-09-29T05:23:07.051Z,81.18
2018-09-29T05:25:35.223Z,81.73
2018-09-29T05:28:03.416Z,81.42
2018-09-29T05:30:31.606Z,81.61
2018-09-29T05:32:59.789Z,82.57
2018-09-29T05:35:27.968Z,83.86
2018-09-29T05:37:56.146Z,83.82
2018-09-29T05:40:24.336Z,84.44
2018-09-29T05:42:52.532Z,84.09
2018-09-29T05:45:20.708Z,83.89
2018-09-29T05:47:48.908Z,84.39
2018-09-29T05:50:17.154Z,84.15
2018-09-29T05:52:45.388Z,84.83
2018-09-29T05:55:13.603Z,84.92
2018-09-29T05:57:41.771Z,84.87
2018-09-29T06:00:10.037Z,85.11
2018-09-29T06:02:38.188Z,84.80
2018-09-29T06:05:06.394Z,84.73
2018-09-29T06:07:34.597Z,85.45
2018-09-29T06:10:02.772Z,85.86
2018-09-29T06:12:31.099Z,86.40
2018-09-29T06:14:59.273Z,87.09
2018-09-29T06:17:27.456Z,87.04
2018-09-29T06:19:55.655Z,86.49
2018-09-29T06:22:23.852Z,88.28
2018-09-29T06:24:52.036Z,86.56
2018-09-29T06:27:20.221Z,86.99
2018-09-29T06:29:48.444Z,87.24
2018-09-29T06:32:16.627Z,86.71
2018-09-29T06:34:44.808Z,87.66
2018-09-29T06:37:13.015Z,87.33
2018-09-29T06:39:41.193Z,87.63
2018-09-29T06:42:09.402Z,87.92
2018-09-29T06:44:37.611Z,88.00
2018-09-29T06:47:05.971Z,87.19
2018-09-29T06:49:34.169Z,87.04
2018-09-29T06:52:02.385Z,88.27
2018-09-29T06:54:30.669Z,88.47
2018-09-29T06:56:58.852Z,87.22
2018-09-29T06:59:27.061Z,87.90
2018-09-29T07:01:55.381Z,88.37
2018-09-29T07:04:24.797Z,86.95
2018-09-29T07:06:53.001Z,86.15
2018-09-29T07:09:22.312Z,86.31
2018-09-29T07:11:50.525Z,87.68
2018-09-29T07:14:19.814Z,88.82
2018-09-29T07:16:48.038Z,89.12
2018-09-29T07:19:17.240Z,88.08
2018-09-29T07:21:45.517Z,87.46
2018-09-29T07:24:14.701Z,87.53
2018-09-29T07:26:42.963Z,88.05
2018-09-29T07:29:11.163Z,87.12
2018-09-29T07:31:39.357Z,87.07
2018-09-29T07:34:07.560Z,86.37
2018-09-29T07:36:35.803Z,86.59
2018-09-29T07:39:04.873Z,86.50
2018-09-29T07:41:33.075Z,84.23
2018-09-29T07:44:01.300Z,86.07
2018-09-29T07:46:29.508Z,85.32
2018-09-29T07:48:57.747Z,86.98
2018-09-29T07:51:25.957Z,87.11
2018-09-29T07:53:54.197Z,86.94
2018-09-29T07:56:22.422Z,86.02
2018-09-29T07:58:50.620Z,86.90
2018-09-29T08:01:19.088Z,86.26
2018-09-29T08:03:47.392Z,86.32
2018-09-29T08:06:15.648Z,85.88
2018-09-29T08:08:43.906Z,84.40
2018-09-29T08:11:12.081Z,84.38
2018-09-29T08:13:40.640Z,80.57
2018-09-29T08:16:09.088Z,80.42
2018-09-29T08:18:37.463Z,77.29
2018-09-29T08:21:05.896Z,70.78
2018-09-29T08:23:34.116Z,72.40
2018-09-29T08:26:02.421Z,74.19
2018-09-29T08:28:31.734Z,73.69
2018-09-29T08:30:59.937Z,74.17
2018-09-29T08:33:28.124Z,73.13
2018-09-29T08:35:56.389Z,71.46
2018-09-29T08:38:24.579Z,73.31
2018-09-29T08:40:52.785Z,73.61
2018-09-29T08:43:21.006Z,74.47
2018-09-29T08:45:49.214Z,71.67
2018-09-29T08:48:17.418Z,69.58
2018-09-29T08:50:45.616Z,72.27
2018-09-29T08:53:13.810Z,71.87
2018-09-29T08:55:42.330Z,73.12
2018-09-29T08:58:10.533Z,72.30
2018-09-29T09:00:38.911Z,71.49
2018-09-29T09:03:08.172Z,71.20
2018-09-29T09:05:36.385Z,69.43
2018-09-29T09:08:04.731Z,69.67
2018-09-29T09:10:33.012Z,69.60
2018-09-29T09:13:01.214Z,68.97
2018-09-29T09:15:29.413Z,69.00
2018-09-29T09:17:57.608Z,68.18
2018-09-29T09:20:29.164Z,66.86
2018-09-29T09:22:57.426Z,66.28
2018-09-29T09:25:25.601Z,65.42
2018-09-29T09:27:53.822Z,66.22
2018-09-29T09:30:22.048Z,67.41
2018-09-29T09:32:50.184Z,66.38
2018-09-29T09:35:18.392Z,65.51
2018-09-29T09:37:46.581Z,65.70
2018-09-29T09:40:14.795Z,65.28
2018-09-29T09:42:42.987Z,65.43
2018-09-29T09:45:11.232Z,65.26
2018-09-29T09:47:39.412Z,65.33
2018-09-29T09:50:07.600Z,66.31
2018-09-29T09:52:35.767Z,65.87
2018-09-29T09:55:03.996Z,64.74
2018-09-29T09:57:32.230Z,63.91
2018-09-29T10:00:00.424Z,64.65
2018-09-29T10:02:33.969Z,63.94
2018-09-29T10:05:02.260Z,62.89
2018-09-29T10:07:30.465Z,63.13
2018-09-29T10:09:58.643Z,64.10
2018-09-29T10:12:26.845Z,63.53
2018-09-29T10:14:55.048Z,61.98
2018-09-29T10:17:23.292Z,61.84
2018-09-29T10:19:51.416Z,61.70
2018-09-29T10:22:19.632Z,61.05
2018-09-29T10:24:47.808Z,60.07
2018-09-29T10:27:15.992Z,60.84
2018-09-29T10:29:44.171Z,61.45
2018-09-29T10:32:12.393Z,59.99
2018-09-29T10:34:40.576Z,61.60
2018-09-29T10:37:08.863Z,62.00
2018-09-29T10:39:37.149Z,58.29
2018-09-29T10:42:05.333Z,58.18
2018-09-29T10:44:33.510Z,58.47
2018-09-29T10:47:01.694Z,58.60
2018-09-29T10:49:29.908Z,58.23
2018-09-29T10:51:58.104Z,57.98
2018-09-29T10:54:26.369Z,57.77
2018-09-29T10:56:54.543Z,56.45
2018-09-29T10:59:22.735Z,57.24
2018-09-29T11:01:50.924Z,57.02
2018-09-29T11:04:19.116Z,55.97
2018-09-29T11:06:47.283Z,56.85
2018-09-29T11:09:15.504Z,54.88
2018-09-29T11:11:43.685Z,57.07
2018-09-29T11:14:11.882Z,55.56
2018-09-29T11:16:40.064Z,55.20
2018-09-29T11:19:08.294Z,54.81
2018-09-29T11:21:36.482Z,54.55
2018-09-29T11:24:04.672Z,54.16
2018-09-29T11:26:32.868Z,54.04
2018-09-29T11:29:01.061Z,53.09
2018-09-29T11:31:29.260Z,53.46
2018-09-29T11:33:57.460Z,52.19
2018-09-29T11:36:25.631Z,52.54
2018-09-29T11:38:53.808Z,52.14
2018-09-29T11:41:21.995Z,50.24
2018-09-29T11:43:50.211Z,50.38
2018-09-29T11:46:18.417Z,50.37
2018-09-29T11:48:46.620Z,51.38
2018-09-29T11:51:14.839Z,51.28
2018-09-29T11:53:43.042Z,50.94
2018-09-29T11:56:11.251Z,49.94
2018-09-29T11:58:39.439Z,52.21
2018-09-29T12:01:07.654Z,51.08
2018-09-29T12:03:35.833Z,49.72
2018-09-29T12:06:04.057Z,47.58
2018-09-29T12:08:32.209Z,48.41
2018-09-29T12:11:00.397Z,49.32
2018-09-29T12:13:28.604Z,47.22
2018-09-29T12:15:56.797Z,48.75
2018-09-29T12:18:24.980Z,46.10
2018-09-29T12:20:53.222Z,47.09
2018-09-29T12:23:21.407Z,47.52
2018-09-29T12:25:49.588Z,48.02
2018-09-29T12:28:17.794Z,47.25
2018-09-29T12:30:45.984Z,46.70
2018-09-29T12:33:14.171Z,46.02
2018-09-29T12:35:42.423Z,44.94
2018-09-29T12:38:10.608Z,44.38
2018-09-29T12:40:38.826Z,44.59
2018-09-29T12:43:07.094Z,43.57
2018-09-29T12:45:35.309Z,45.18
2018-09-29T12:48:03.504Z,43.48
2018-09-29T12:50:31.725Z,44.99
2018-09-29T12:52:59.961Z,44.29
2018-09-29T12:55:28.112Z,43.74
2018-09-29T12:57:56.412Z,42.22
2018-09-29T13:00:24.672Z,43.54
2018-09-29T13:02:52.916Z,42.78
2018-09-29T13:05:21.157Z,41.12
2018-09-29T13:07:49.373Z,42.31
2018-09-29T13:10:17.567Z,41.51
2018-09-29T13:12:45.917Z,41.09
2018-09-29T13:15:14.124Z,40.59
2018-09-29T13:17:42.304Z,40.65
2018-09-29T13:20:10.487Z,40.68
2018-09-29T13:22:38.717Z,40.44
2018-09-29T13:25:06.927Z,38.95
2018-09-29T13:27:35.139Z,39.95
2018-09-29T13:30:03.356Z,38.73
2018-09-29T13:32:31.543Z,38.85
2018-09-29T13:34:59.728Z,37.10
2018-09-29T13:37:27.995Z,37.11
2018-09-29T13:39:56.185Z,38.47
2018-09-29T13:42:24.384Z,36.63
2018-09-29T13:44:52.700Z,36.12
2018-09-29T13:47:20.868Z,36.60
2018-09-29T13:49:49.113Z,37.23
2018-09-29T13:52:17.257Z,36.99
2018-09-29T13:54:45.522Z,34.77
2018-09-29T13:57:13.722Z,34.44
2018-09-29T13:59:42.086Z,34.62
2018-09-29T14:02:10.321Z,34.38
2018-09-29T14:04:38.655Z,34.92
2018-09-29T14:07:06.836Z,33.42
2018-09-29T14:09:35.012Z,34.36
2018-09-29T14:12:03.217Z,34.40
2018-09-29T14:14:31.387Z,35.27
2018-09-29T14:16:59.611Z,35.84
2018-09-29T14:19:27.799Z,32.13
2018-09-29T14:21:55.993Z,34.49
2018-09-29T14:24:24.160Z,31.40
2018-09-29T14:26:52.362Z,31.91
2018-09-29T14:29:20.548Z,33.07
2018-09-29T14:31:48.733Z,32.61
2018-09-29T14:34:16.912Z,31.47
2018-09-29T14:36:45.092Z,32.18
2018-09-29T14:39:13.277Z,33.25
2018-09-29T14:41:41.466Z,36.09
2018-09-29T14:44:09.955Z,35.96
2018-09-29T14:46:38.212Z,36.87
2018-09-29T14:49:06.468Z,36.33
2018-09-29T14:51:34.764Z,36.79
2018-09-29T14:54:02.953Z,36.53
2018-09-29T14:56:31.131Z,35.37
2018-09-29T14:58:59.313Z,35.74
2018-09-29T15:01:27.852Z,35.72
2018-09-29T15:03:56.088Z,35.65
2018-09-29T15:06:24.247Z,39.98
2018-09-29T15:08:52.477Z,38.78
2018-09-29T15:11:20.672Z,41.15
2018-09-29T15:13:48.878Z,40.07
2018-09-29T15:16:17.060Z,38.84
2018-09-29T15:18:45.688Z,39.45
2018-09-29T15:21:13.860Z,38.90
2018-09-29T15:23:42.071Z,39.35
2018-09-29T15:26:10.315Z,39.35
2018-09-29T15:28:38.444Z,39.19
2018-09-29T15:31:06.783Z,42.30
2018-09-29T15:33:35.048Z,39.83
2018-09-29T15:36:03.219Z,41.93
2018-09-29T15:38:31.450Z,42.84
2018-09-29T15:40:59.644Z,39.72
2018-09-29T15:43:27.824Z,39.14
2018-09-29T15:45:56.024Z,40.00
2018-09-29T15:48:24.211Z,39.14
2018-09-29T15:50:52.481Z,38.45
2018-09-29T15:53:20.640Z,40.23
2018-09-29T15:55:48.818Z,39.37
2018-09-29T15:58:17.315Z,41.35
2018-09-29T16:00:45.533Z,39.96
2018-09-29T16:03:13.736Z,41.69
2018-09-29T16:05:41.988Z,37.69
2018-09-29T16:08:10.157Z,38.46
2018-09-29T16:10:38.323Z,38.26
2018-09-29T16:13:06.524Z,39.42
2018-09-29T16:15:34.821Z,38.98
2018-09-29T16:18:03.007Z,38.10
2018-09-29T16:20:31.196Z,37.17
2018-09-29T16:22:59.379Z,37.91
2018-09-29T16:25:27.561Z,38.33
2018-09-29T16:27:55.755Z,38.92
2018-09-29T16:30:23.924Z,39.25
2018-09-29T16:32:52.189Z,43.10
2018-09-29T16:35:20.376Z,44.13
2018-09-29T16:37:48.599Z,41.73
2018-09-29T16:40:16.809Z,46.46
2018-09-29T16:42:45.036Z,41.88
2018-09-29T16:45:13.228Z,41.79
2018-09-29T16:47:41.420Z,41.63
2018-09-29T16:50:09.610Z,42.28
2018-09-29T16:52:37.841Z,42.66
2018-09-29T16:55:06.183Z,41.83
2018-09-29T16:57:34.381Z,43.01
2018-09-29T17:00:02.592Z,41.96
2018-09-29T17:02:30.776Z,42.97
2018-09-29T17:04:59.027Z,43.96
2018-09-29T17:07:27.196Z,45.23
2018-09-29T17:09:55.371Z,46.28
2018-09-29T17:12:23.572Z,45.76
2018-09-29T17:14:51.757Z,46.08
2018-09-29T17:17:20.013Z,46.12
2018-09-29T17:19:48.228Z,47.28
2018-09-29T17:22:16.515Z,47.34
2018-09-29T17:24:44.693Z,47.39
2018-09-29T17:27:13.480Z,48.66
2018-09-29T17:29:41.672Z,48.72
2018-09-29T17:32:09.885Z,49.36
2018-09-29T17:34:38.078Z,51.04
2018-09-29T17:37:06.280Z,50.59
2018-09-29T17:39:37.317Z,51.60
2018-09-29T17:42:05.525Z,50.39
2018-09-29T17:44:33.709Z,52.51
2018-09-29T17:47:01.960Z,52.98
2018-09-29T17:49:30.217Z,53.33
2018-09-29T17:51:58.408Z,54.49
2018-09-29T17:54:26.584Z,54.67
2018-09-29T17:56:54.768Z,54.46
2018-09-29T17:59:22.972Z,54.30
2018-09-29T18:01:51.193Z,54.47
2018-09-29T18:04:19.383Z,54.96
2018-09-29T18:06:47.608Z,55.69
2018-09-29T18:09:15.773Z,55.81
2018-09-29T18:11:43.964Z,56.41
2018-09-29T18:14:12.146Z,55.81
2018-09-29T18:16:40.338Z,56.73
2018-09-29T18:19:09.404Z,56.04
2018-09-29T18:21:37.657Z,56.86
2018-09-29T18:24:05.772Z,57.37
2018-09-29T18:26:33.982Z,56.71
2018-09-29T18:29:02.186Z,56.98
2018-09-29T18:31:30.368Z,57.47
2018-09-29T18:33:58.562Z,56.60
2018-09-29T18:36:26.753Z,58.05
2018-09-29T18:38:54.968Z,57.50
2018-09-29T18:41:23.201Z,57.76
2018-09-29T18:43:51.395Z,58.43
2018-09-29T18:46:19.573Z,58.09
2018-09-29T18:48:47.760Z,58.81
2018-09-29T18:51:15.932Z,59.85
2018-09-29T18:53:44.116Z,59.47
2018-09-29T18:56:12.334Z,59.42
2018-09-29T18:58:40.516Z,60.13
2018-09-29T19:01:08.728Z,61.02
2018-09-29T19:03:36.948Z,61.14
2018-09-29T19:06:05.160Z,61.36
2018-09-29T19:08:33.336Z,63.02
2018-09-29T19:11:01.528Z,62.49
2018-09-29T19:13:29.721Z,63.43
2018-09-29T19:15:59.965Z,63.30
2018-09-29T19:18:28.151Z,63.37
2018-09-29T19:20:56.364Z,64.16
2018-09-29T19:23:24.538Z,64.06
2018-09-29T19:25:52.711Z,64.72
2018-09-29T19:28:20.908Z,63.86
2018-09-29T19:30:49.129Z,65.10
2018-09-29T19:33:17.344Z,65.52
2018-09-29T19:35:45.516Z,65.41
2018-09-29T19:38:13.701Z,65.57
2018-09-29T19:40:41.885Z,66.13
2018-09-29T19:43:10.098Z,65.86
2018-09-29T19:45:38.333Z,65.18
2018-09-29T19:48:06.506Z,66.09
2018-09-29T19:50:34.705Z,65.65
2018-09-29T19:53:02.956Z,65.07
2018-09-29T19:55:31.135Z,64.85
2018-09-29T19:57:59.361Z,64.92
2018-09-29T20:00:27.536Z,65.26
2018-09-29T20:02:56.060Z,65.00
2018-09-29T20:05:24.236Z,64.62
2018-09-29T20:07:52.439Z,65.25
2018-09-29T20:10:20.824Z,64.42
2018-09-29T20:12:48.913Z,64.84
2018-09-29T20:15:17.105Z,65.05
2018-09-29T20:18:01.903Z,65.09
2018-09-29T20:20:30.417Z,64.85
2018-09-29T20:22:58.739Z,66.14
2018-09-29T20:25:31.808Z,66.42
2018-09-29T20:28:01.297Z,65.13
2018-09-29T20:30:29.724Z,66.72
2018-09-29T20:32:57.919Z,66.31
2018-09-29T20:35:26.101Z,67.03
2018-09-29T20:37:54.290Z,66.54
2018-09-29T20:40:23.389Z,65.88
2018-09-29T20:42:52.736Z,66.15
2018-09-29T20:45:22.009Z,66.00
2018-09-29T20:47:50.219Z,67.65
2018-09-29T20:50:18.501Z,66.74
2018-09-29T20:52:46.697Z,67.46
2018-09-29T20:55:14.880Z,68.59
2018-09-29T20:57:43.073Z,68.64
2018-09-29T21:00:11.343Z,67.72
2018-09-29T21:02:39.545Z,68.47
2018-09-29T21:05:07.853Z,68.66
2018-09-29T21:07:36.069Z,68.85
2018-09-29T21:10:04.338Z,70.28
2018-09-29T21:12:32.584Z,69.06
2018-09-29T21:15:00.784Z,69.83
2018-09-29T21:17:29.017Z,69.59
2018-09-29T21:19:59.369Z,69.09
2018-09-29T21:22:27.599Z,69.86
2018-09-29T21:24:55.877Z,70.03
2018-09-29T21:27:28.235Z,70.38
2018-09-29T21:29:56.576Z,69.45
2018-09-29T21:32:24.793Z,70.04
2018-09-29T21:34:53.125Z,69.77
2018-09-29T21:37:21.318Z,70.18
2018-09-29T21:39:49.512Z,70.13
2018-09-29T21:42:18.031Z,69.92
2018-09-29T21:44:46.271Z,70.75
2018-09-29T21:47:14.931Z,70.11
2018-09-29T21:49:43.119Z,69.81
2018-09-29T21:52:11.394Z,70.11
2018-09-29T21:54:39.586Z,70.26
2018-09-29T21:57:07.776Z,70.05
2018-09-29T21:59:37.041Z,70.14
2018-09-29T22:02:05.256Z,70.49
2018-09-29T22:04:33.526Z,70.57
2018-09-29T22:07:01.647Z,69.71
2018-09-29T22:09:29.861Z,70.41
2018-09-29T22:11:58.028Z,70.90
2018-09-29T22:14:26.256Z,70.93
2018-09-29T22:16:54.445Z,70.54
2018-09-29T22:19:22.641Z,72.90
2018-09-29T22:21:50.804Z,72.31
2018-09-29T22:24:19.193Z,71.74
2018-09-29T22:26:47.376Z,71.35
2018-09-29T22:29:15.593Z,72.55
2018-09-29T22:31:43.865Z,71.17
2018-09-29T22:34:12.071Z,72.06
2018-09-29T22:36:41.347Z,71.80
2018-09-29T22:39:10.968Z,70.75
2018-09-29T22:41:39.142Z,71.20
2018-09-29T22:44:07.355Z,71.57
2018-09-29T22:46:35.548Z,71.37
2018-09-29T22:49:03.853Z,72.42
2018-09-29T22:51:32.082Z,72.08
2018-09-29T22:54:00.272Z,72.80
2018-09-29T22:56:28.489Z,73.43
2018-09-29T22:58:56.676Z,73.49
2018-09-29T23:01:24.874Z,73.16
2018-09-29T23:03:55.111Z,73.59
2018-09-29T23:06:27.588Z,74.33
2018-09-29T23:08:55.773Z,74.50
2018-09-29T23:11:24.015Z,75.02
2018-09-29T23:13:52.205Z,74.98
2018-09-29T23:16:21.485Z,76.24
2018-09-29T23:18:49.776Z,75.90
2018-09-29T23:21:18.063Z,74.74
2018-09-29T23:23:46.304Z,74.35
2018-09-29T23:26:14.504Z,74.15
2018-09-29T23:28:42.698Z,73.37
2018-09-29T23:31:10.886Z,73.01
2018-09-29T23:33:39.089Z,74.18
2018-09-29T23:36:07.286Z,75.59
2018-09-29T23:38:35.485Z,75.15
2018-09-29T23:41:07.204Z,75.04
2018-09-29T23:43:35.406Z,75.24
2018-09-29T23:46:03.567Z,75.26
2018-09-29T23:48:31.812Z,74.72
2018-09-29T23:51:00.021Z,75.67
2018-09-29T23:53:28.222Z,74.62
2018-09-29T23:55:56.411Z,75.33
2018-09-29T23:58:24.613Z,75.98
